Frens, South Carolina
Current Conditions -  °F | °C
As of 10:35 AM on Saturday 25 Oct 2014 (Local Time) from KSMS Reporting Station
Clear Clear  
Wind Chill: 63°   Ceiling: Unl
Heat Index: 63°   Visibility: 10mi
Dew Point: 45°   Wind: 5mph
Humidity: 52%   Direction: 360°N
Pressure: 30.05"   Gusts: NA
Location:  33.9242°N, 80.1986°W
Report Text: KSMS 251435Z AUTO 36004KT 10SM CLR 17/07 A3005 RMK AO2
Loading
Personal Weather Stations






























Interactive Weather Map
Tropical Storm Tracking
New forecast layout! Learn more

10-Day Weather Forecast

Advertisements
Track Severe Weather on mobile